ADDS METAR Data INFO
IDs: Format: Raw Decoded Include TAF

Data at: 1915 UTC 23 Jun 2018

METAR for:KMRT (Marysville/Union Cnt, OH, US)
Text:KMRT 231855Z AUTO 27012G15KT 10SM SCT029 OVC075 24/18 A2977 RMK AO2 T02380175
Temperature: 23.8°C ( 75°F)
Dewpoint: 17.5°C ( 64°F) [RH = 68%]
Pressure (altimeter):29.77 inches Hg (1008.2 mb)
Winds:from the W (270 degrees) at 14 MPH (12 knots; 6.2 m/s) gusting to 17 MPH (15 knots; 7.7 m/s)
Visibility:10 or more sm (16+ km)
Ceiling:7500 feet AGL
Clouds: scattered clouds at 2900 feet AGL, overcast cloud deck at 7500 feet AGL
QC Flag:automated observation with no human augmentation